PWSweather.com
Personal Weather Stations
Station Observations
WAIROAHB
Wairoa, Northern Hawkes Bay -NZ 4108

WairoaNorthern Hawkes Bay -NZ 4108

Lat: -39.04516934, Lon: 177.4263989

Elevation: 156

Station Type: WS3083

http://wairoa.net/weather/index.htm

High Low Average
Temperature 86.9°F30.5°C 68.0°F20.0°C 78.9°F26.1°C
Dew Point 66.6°F19.2°C 60.6°F15.9°C 64.2°F17.9°C
Winds 14.5 mph 23.3 kmh 2.2 mph 3.5 kmh 6.0 mph WSW9.7 kmh WSW
Wind Gusts 23.5 mph37.8 kmh 3.1 mph5.0 kmh 12.0 mph19.3 kmh
Humidity 80% 48% 62%
Pressure 30.03 in1016.9 mb 29.93 in1013.5 mb -
Precipitation 0.00 in0.0 mm - -
Hour Temp Dew Point Humidity Winds Wind Gusts Pressure Precip Precip Rate Daily Precip Total
12:27 AM 69.1°F20.6°C 60.8°F16.0°C 75% 2.2 mph N3.5 kmh N 3.1 mph5.0 kmh 30.03 in1016.9 mb 0.00 in0.0 mm 0.00 in0.0 mm 0.00 in0.0 mm
12:57 AM 68.9°F20.5°C 60.6°F15.9°C 75% 3.1 mph N5.0 kmh N 4.5 mph7.2 kmh 30.02 in1016.6 mb 0.00 in0.0 mm 0.00 in0.0 mm 0.00 in0.0 mm
01:27 AM 68.2°F20.1°C 60.7°F15.9°C 77% 2.2 mph NW3.5 kmh NW 3.1 mph5.0 kmh 30.02 in1016.6 mb 0.00 in0.0 mm 0.00 in0.0 mm 0.00 in0.0 mm
01:57 AM 68.0°F20.0°C 60.9°F16.1°C 78% 4.5 mph N7.2 kmh N 7.6 mph12.2 kmh 29.99 in1015.6 mb 0.00 in0.0 mm 0.00 in0.0 mm 0.00 in0.0 mm
02:27 AM 68.5°F20.3°C 61.4°F16.3°C 78% 3.1 mph N5.0 kmh N 5.4 mph8.7 kmh 29.98 in1015.2 mb 0.00 in0.0 mm 0.00 in0.0 mm 0.00 in0.0 mm
02:57 AM 68.5°F20.3°C 61.4°F16.3°C 78% 5.4 mph N8.7 kmh N 7.6 mph12.2 kmh 29.98 in1015.2 mb 0.00 in0.0 mm 0.00 in0.0 mm 0.00 in0.0 mm
03:27 AM 69.1°F20.6°C 61.6°F16.4°C 77% 3.1 mph N5.0 kmh N 4.5 mph7.2 kmh 29.98 in1015.2 mb 0.00 in0.0 mm 0.00 in0.0 mm 0.00 in0.0 mm
03:57 AM 68.5°F20.3°C 61.4°F16.3°C 78% 3.8 mph N6.1 kmh N 6.0 mph9.7 kmh 29.98 in1015.2 mb 0.00 in0.0 mm 0.00 in0.0 mm 0.00 in0.0 mm
04:27 AM 68.2°F20.1°C 61.8°F16.6°C 80% 3.8 mph NW6.1 kmh NW 7.6 mph12.2 kmh 29.98 in1015.2 mb 0.00 in0.0 mm 0.00 in0.0 mm 0.00 in0.0 mm
04:57 AM 69.1°F20.6°C 61.6°F16.4°C 77% 3.8 mph N6.1 kmh N 5.4 mph8.7 kmh 29.99 in1015.6 mb 0.00 in0.0 mm 0.00 in0.0 mm 0.00 in0.0 mm
05:27 AM 70.0°F21.1°C 61.7°F16.5°C 75% 6.0 mph N9.7 kmh N 7.6 mph12.2 kmh 29.98 in1015.2 mb 0.00 in0.0 mm 0.00 in0.0 mm 0.00 in0.0 mm
05:57 AM 71.8°F22.1°C 61.9°F16.6°C 71% 5.4 mph NW8.7 kmh NW 6.9 mph11.1 kmh 29.99 in1015.6 mb 0.00 in0.0 mm 0.00 in0.0 mm 0.00 in0.0 mm
06:27 AM 73.2°F22.9°C 62.8°F17.1°C 70% 3.8 mph NE6.1 kmh NE 5.4 mph8.7 kmh 30.00 in1015.9 mb 0.00 in0.0 mm 0.00 in0.0 mm 0.00 in0.0 mm
06:57 AM 75.6°F24.2°C 63.0°F17.2°C 65% 6.9 mph NW11.1 kmh NW 9.8 mph15.8 kmh 30.00 in1015.9 mb 0.00 in0.0 mm 0.00 in0.0 mm 0.00 in0.0 mm
07:27 AM 77.2°F25.1°C 64.1°F17.8°C 64% 3.8 mph N6.1 kmh N 6.0 mph9.7 kmh 30.01 in1016.3 mb 0.00 in0.0 mm 0.00 in0.0 mm 0.00 in0.0 mm
07:57 AM 78.8°F26.0°C 64.2°F17.9°C 61% 4.5 mph N7.2 kmh N 6.9 mph11.1 kmh 30.02 in1016.6 mb 0.00 in0.0 mm 0.00 in0.0 mm 0.00 in0.0 mm
08:27 AM 79.0°F26.1°C 61.9°F16.6°C 56% 11.4 mph NW18.3 kmh NW 21.3 mph34.3 kmh 30.02 in1016.6 mb 0.00 in0.0 mm 0.00 in0.0 mm 0.00 in0.0 mm
08:57 AM 80.2°F26.8°C 63.1°F17.3°C 56% 14.5 mph NW23.3 kmh NW 19.0 mph30.6 kmh 30.01 in1016.3 mb 0.00 in0.0 mm 0.00 in0.0 mm 0.00 in0.0 mm
09:27 AM 81.0°F27.2°C 63.3°F17.4°C 55% 4.5 mph W7.2 kmh W 6.9 mph11.1 kmh 30.01 in1016.3 mb 0.00 in0.0 mm 0.00 in0.0 mm 0.00 in0.0 mm
09:57 AM 79.3°F26.3°C 63.3°F17.4°C 58% 9.2 mph WNW14.8 kmh WNW 13.0 mph20.9 kmh 30.01 in1016.3 mb 0.00 in0.0 mm 0.00 in0.0 mm 0.00 in0.0 mm
10:27 AM 81.1°F27.3°C 63.4°F17.4°C 55% 5.4 mph N8.7 kmh N 8.3 mph13.4 kmh 30.01 in1016.3 mb 0.00 in0.0 mm 0.00 in0.0 mm 0.00 in0.0 mm
11:00 AM 82.8°F28.2°C 63.9°F17.7°C 53% 6.9 mph NNW11.1 kmh NNW 14.5 mph23.3 kmh 30.01 in1016.3 mb 0.00 in0.0 mm 0.00 in0.0 mm 0.00 in0.0 mm
11:10 AM 82.9°F28.3°C 65.2°F18.4°C 55% 6.9 mph NNW11.1 kmh NNW 15.2 mph24.5 kmh 30.00 in1015.9 mb 0.00 in0.0 mm 0.00 in0.0 mm 0.00 in0.0 mm
11:20 AM 82.4°F28.0°C 64.1°F17.8°C 54% 7.6 mph N12.2 kmh N 16.8 mph27.0 kmh 30.01 in1016.3 mb 0.00 in0.0 mm 0.00 in0.0 mm 0.00 in0.0 mm
11:30 AM 84.0°F28.9°C 65.1°F18.4°C 53% 6.9 mph N11.1 kmh N 14.5 mph23.3 kmh 30.00 in1015.9 mb 0.00 in0.0 mm 0.00 in0.0 mm 0.00 in0.0 mm
11:40 AM 83.5°F28.6°C 64.6°F18.1°C 53% 9.8 mph NNE15.8 kmh NNE 14.5 mph23.3 kmh 29.99 in1015.6 mb 0.00 in0.0 mm 0.00 in0.0 mm 0.00 in0.0 mm
11:50 AM 82.9°F28.3°C 64.1°F17.8°C 53% 5.4 mph NW8.7 kmh NW 15.9 mph25.6 kmh 29.99 in1015.6 mb 0.00 in0.0 mm 0.00 in0.0 mm 0.00 in0.0 mm
12:00 PM 84.6°F29.2°C 65.1°F18.4°C 52% 5.4 mph N8.7 kmh N 16.8 mph27.0 kmh 29.99 in1015.6 mb 0.00 in0.0 mm 0.00 in0.0 mm 0.00 in0.0 mm
12:10 PM 83.5°F28.6°C 64.1°F17.8°C 52% 6.0 mph NW9.7 kmh NW 15.2 mph24.5 kmh 30.00 in1015.9 mb 0.00 in0.0 mm 0.00 in0.0 mm 0.00 in0.0 mm
12:20 PM 83.1°F28.4°C 64.3°F17.9°C 53% 9.2 mph NW14.8 kmh NW 16.8 mph27.0 kmh 29.99 in1015.6 mb 0.00 in0.0 mm 0.00 in0.0 mm 0.00 in0.0 mm
12:30 PM 82.9°F28.3°C 64.6°F18.1°C 54% 7.6 mph NW12.2 kmh NW 15.2 mph24.5 kmh 29.99 in1015.6 mb 0.00 in0.0 mm 0.00 in0.0 mm 0.00 in0.0 mm
12:40 PM 83.5°F28.6°C 65.1°F18.4°C 54% 7.6 mph N12.2 kmh N 13.6 mph21.9 kmh 29.98 in1015.2 mb 0.00 in0.0 mm 0.00 in0.0 mm 0.00 in0.0 mm
12:50 PM 83.7°F28.7°C 64.8°F18.2°C 53% 7.6 mph N12.2 kmh N 15.2 mph24.5 kmh 29.99 in1015.6 mb 0.00 in0.0 mm 0.00 in0.0 mm 0.00 in0.0 mm
01:00 PM 83.3°F28.5°C 65.5°F18.6°C 55% 6.0 mph NNW9.7 kmh NNW 16.8 mph27.0 kmh 29.99 in1015.6 mb 0.00 in0.0 mm 0.00 in0.0 mm 0.00 in0.0 mm
01:10 PM 85.6°F29.8°C 66.6°F19.2°C 53% 6.9 mph N11.1 kmh N 13.6 mph21.9 kmh 29.98 in1015.2 mb 0.00 in0.0 mm 0.00 in0.0 mm 0.00 in0.0 mm
01:20 PM 85.1°F29.5°C 65.0°F18.3°C 51% 6.9 mph N11.1 kmh N 16.8 mph27.0 kmh 29.98 in1015.2 mb 0.00 in0.0 mm 0.00 in0.0 mm 0.00 in0.0 mm
01:30 PM 85.3°F29.6°C 66.3°F19.1°C 53% 9.2 mph NNW14.8 kmh NNW 16.8 mph27.0 kmh 29.97 in1014.9 mb 0.00 in0.0 mm 0.00 in0.0 mm 0.00 in0.0 mm
01:40 PM 86.5°F30.3°C 65.7°F18.7°C 50% 5.4 mph N8.7 kmh N 23.5 mph37.8 kmh 29.97 in1014.9 mb 0.00 in0.0 mm 0.00 in0.0 mm 0.00 in0.0 mm
01:50 PM 86.7°F30.4°C 65.9°F18.8°C 50% 7.6 mph N12.2 kmh N 19.7 mph31.7 kmh 29.97 in1014.9 mb 0.00 in0.0 mm 0.00 in0.0 mm 0.00 in0.0 mm
02:00 PM 86.0°F30.0°C 65.8°F18.8°C 51% 7.6 mph N12.2 kmh N 19.0 mph30.6 kmh 29.97 in1014.9 mb 0.00 in0.0 mm 0.00 in0.0 mm 0.00 in0.0 mm
02:10 PM 85.6°F29.8°C 66.6°F19.2°C 53% 10.7 mph NNW17.2 kmh NNW 19.7 mph31.7 kmh 29.96 in1014.6 mb 0.00 in0.0 mm 0.00 in0.0 mm 0.00 in0.0 mm
02:20 PM 85.6°F29.8°C 65.5°F18.6°C 51% 8.3 mph NNW13.4 kmh NNW 22.1 mph35.6 kmh 29.96 in1014.6 mb 0.00 in0.0 mm 0.00 in0.0 mm 0.00 in0.0 mm
02:30 PM 85.1°F29.5°C 65.6°F18.7°C 52% 12.1 mph N19.5 kmh N 22.1 mph35.6 kmh 29.97 in1014.9 mb 0.00 in0.0 mm 0.00 in0.0 mm 0.00 in0.0 mm
02:40 PM 84.9°F29.4°C 65.4°F18.6°C 52% 7.6 mph NNW12.2 kmh NNW 22.1 mph35.6 kmh 29.96 in1014.6 mb 0.00 in0.0 mm 0.00 in0.0 mm 0.00 in0.0 mm
02:50 PM 85.1°F29.5°C 65.0°F18.3°C 51% 8.3 mph N13.4 kmh N 19.7 mph31.7 kmh 29.96 in1014.6 mb 0.00 in0.0 mm 0.00 in0.0 mm 0.00 in0.0 mm
03:00 PM 85.3°F29.6°C 65.2°F18.4°C 51% 11.4 mph NNW18.3 kmh NNW 18.3 mph29.5 kmh 29.96 in1014.6 mb 0.00 in0.0 mm 0.00 in0.0 mm 0.00 in0.0 mm
03:10 PM 84.9°F29.4°C 65.9°F18.8°C 53% 9.2 mph N14.8 kmh N 19.7 mph31.7 kmh 29.95 in1014.2 mb 0.00 in0.0 mm 0.00 in0.0 mm 0.00 in0.0 mm
03:20 PM 85.8°F29.9°C 65.7°F18.7°C 51% 11.4 mph N18.3 kmh N 18.3 mph29.5 kmh 29.96 in1014.6 mb 0.00 in0.0 mm 0.00 in0.0 mm 0.00 in0.0 mm
03:30 PM 84.7°F29.3°C 65.8°F18.8°C 53% 9.2 mph NNW14.8 kmh NNW 17.4 mph28.0 kmh 29.96 in1014.6 mb 0.00 in0.0 mm 0.00 in0.0 mm 0.00 in0.0 mm
03:40 PM 84.9°F29.4°C 65.4°F18.6°C 52% 6.9 mph N11.1 kmh N 19.0 mph30.6 kmh 29.94 in1013.9 mb 0.00 in0.0 mm 0.00 in0.0 mm 0.00 in0.0 mm
03:50 PM 84.9°F29.4°C 65.4°F18.6°C 52% 6.9 mph NW11.1 kmh NW 15.2 mph24.5 kmh 29.95 in1014.2 mb 0.00 in0.0 mm 0.00 in0.0 mm 0.00 in0.0 mm
04:00 PM 86.2°F30.1°C 64.8°F18.2°C 49% 8.3 mph NNW13.4 kmh NNW 15.2 mph24.5 kmh 29.95 in1014.2 mb 0.00 in0.0 mm 0.00 in0.0 mm 0.00 in0.0 mm
04:10 PM 86.9°F30.5°C 64.9°F18.3°C 48% 10.7 mph NW17.2 kmh NW 16.8 mph27.0 kmh 29.94 in1013.9 mb 0.00 in0.0 mm 0.00 in0.0 mm 0.00 in0.0 mm
04:20 PM 85.5°F29.7°C 65.3°F18.5°C 51% 11.4 mph N18.3 kmh N 17.4 mph28.0 kmh 29.95 in1014.2 mb 0.00 in0.0 mm 0.00 in0.0 mm 0.00 in0.0 mm
04:30 PM 85.5°F29.7°C 65.3°F18.5°C 51% 7.6 mph NW12.2 kmh NW 15.2 mph24.5 kmh 29.94 in1013.9 mb 0.00 in0.0 mm 0.00 in0.0 mm 0.00 in0.0 mm
04:40 PM 84.4°F29.1°C 65.4°F18.6°C 53% 9.8 mph N15.8 kmh N 16.8 mph27.0 kmh 29.94 in1013.9 mb 0.00 in0.0 mm 0.00 in0.0 mm 0.00 in0.0 mm
04:50 PM 85.5°F29.7°C 65.3°F18.5°C 51% 10.7 mph NNW17.2 kmh NNW 17.4 mph28.0 kmh 29.93 in1013.5 mb 0.00 in0.0 mm 0.00 in0.0 mm 0.00 in0.0 mm
05:00 PM 83.5°F28.6°C 64.6°F18.1°C 53% 9.2 mph N14.8 kmh N 17.4 mph28.0 kmh 29.94 in1013.9 mb 0.00 in0.0 mm 0.00 in0.0 mm 0.00 in0.0 mm
05:10 PM 84.4°F29.1°C 65.4°F18.6°C 53% 6.9 mph NNW11.1 kmh NNW 14.5 mph23.3 kmh 29.94 in1013.9 mb 0.00 in0.0 mm 0.00 in0.0 mm 0.00 in0.0 mm
05:20 PM 83.8°F28.8°C 62.7°F17.1°C 49% 9.8 mph NW15.8 kmh NW 14.5 mph23.3 kmh 29.94 in1013.9 mb 0.00 in0.0 mm 0.00 in0.0 mm 0.00 in0.0 mm
05:30 PM 82.9°F28.3°C 64.6°F18.1°C 54% 6.0 mph NW9.7 kmh NW 13.6 mph21.9 kmh 29.94 in1013.9 mb 0.00 in0.0 mm 0.00 in0.0 mm 0.00 in0.0 mm
05:40 PM 82.4°F28.0°C 64.7°F18.2°C 55% 5.4 mph NNW8.7 kmh NNW 13.0 mph20.9 kmh 29.94 in1013.9 mb 0.00 in0.0 mm 0.00 in0.0 mm 0.00 in0.0 mm
05:50 PM 82.0°F27.8°C 64.3°F17.9°C 55% 7.6 mph NW12.2 kmh NW 13.6 mph21.9 kmh 29.94 in1013.9 mb 0.00 in0.0 mm 0.00 in0.0 mm 0.00 in0.0 mm
06:00 PM 82.0°F27.8°C 64.3°F17.9°C 55% 5.4 mph NNW8.7 kmh NNW 11.4 mph18.3 kmh 29.95 in1014.2 mb 0.00 in0.0 mm 0.00 in0.0 mm 0.00 in0.0 mm
06:10 PM 81.3°F27.4°C 64.7°F18.2°C 57% 7.6 mph NW12.2 kmh NW 10.7 mph17.2 kmh 29.95 in1014.2 mb 0.00 in0.0 mm 0.00 in0.0 mm 0.00 in0.0 mm
06:20 PM 81.0°F27.2°C 64.8°F18.2°C 58% 3.8 mph NNW6.1 kmh NNW 11.4 mph18.3 kmh 29.95 in1014.2 mb 0.00 in0.0 mm 0.00 in0.0 mm 0.00 in0.0 mm
06:30 PM 81.0°F27.2°C 64.3°F17.9°C 57% 5.4 mph N8.7 kmh N 11.4 mph18.3 kmh 29.96 in1014.6 mb 0.00 in0.0 mm 0.00 in0.0 mm 0.00 in0.0 mm
06:40 PM 80.2°F26.8°C 63.7°F17.6°C 57% 5.4 mph N8.7 kmh N 11.4 mph18.3 kmh 29.95 in1014.2 mb 0.00 in0.0 mm 0.00 in0.0 mm 0.00 in0.0 mm
06:50 PM 79.9°F26.6°C 63.3°F17.4°C 57% 6.9 mph NW11.1 kmh NW 11.4 mph18.3 kmh 29.96 in1014.6 mb 0.00 in0.0 mm 0.00 in0.0 mm 0.00 in0.0 mm
07:00 PM 79.5°F26.4°C 63.0°F17.2°C 57% 9.2 mph NW14.8 kmh NW 12.1 mph19.5 kmh 29.96 in1014.6 mb 0.00 in0.0 mm 0.00 in0.0 mm 0.00 in0.0 mm
07:10 PM 79.3°F26.3°C 62.8°F17.1°C 57% 5.4 mph NNW8.7 kmh NNW 11.4 mph18.3 kmh 29.97 in1014.9 mb 0.00 in0.0 mm 0.00 in0.0 mm 0.00 in0.0 mm
07:20 PM 78.8°F26.0°C 63.3°F17.4°C 59% 6.9 mph NW11.1 kmh NW 10.7 mph17.2 kmh 29.97 in1014.9 mb 0.00 in0.0 mm 0.00 in0.0 mm 0.00 in0.0 mm
07:30 PM 78.1°F25.6°C 64.5°F18.1°C 63% 4.5 mph NNW7.2 kmh NNW 8.3 mph13.4 kmh 29.97 in1014.9 mb 0.00 in0.0 mm 0.00 in0.0 mm 0.00 in0.0 mm
07:40 PM 77.5°F25.3°C 64.9°F18.3°C 65% 4.5 mph N7.2 kmh N 8.3 mph13.4 kmh 29.97 in1014.9 mb 0.00 in0.0 mm 0.00 in0.0 mm 0.00 in0.0 mm
07:50 PM 77.0°F25.0°C 64.8°F18.2°C 66% 4.5 mph NNW7.2 kmh NNW 8.3 mph13.4 kmh 29.97 in1014.9 mb 0.00 in0.0 mm 0.00 in0.0 mm 0.00 in0.0 mm
08:00 PM 76.6°F24.8°C 65.3°F18.5°C 68% 5.4 mph NNW8.7 kmh NNW 10.7 mph17.2 kmh 29.98 in1015.2 mb 0.00 in0.0 mm 0.00 in0.0 mm 0.00 in0.0 mm
08:10 PM 76.1°F24.5°C 65.2°F18.4°C 69% 3.8 mph N6.1 kmh N 9.2 mph14.8 kmh 29.98 in1015.2 mb 0.00 in0.0 mm 0.00 in0.0 mm 0.00 in0.0 mm
08:20 PM 76.1°F24.5°C 64.8°F18.2°C 68% 5.4 mph N8.7 kmh N 10.7 mph17.2 kmh 29.98 in1015.2 mb 0.00 in0.0 mm 0.00 in0.0 mm 0.00 in0.0 mm
08:30 PM 75.9°F24.4°C 65.1°F18.4°C 69% 3.8 mph N6.1 kmh N 9.8 mph15.8 kmh 29.98 in1015.2 mb 0.00 in0.0 mm 0.00 in0.0 mm 0.00 in0.0 mm
08:40 PM 75.6°F24.2°C 64.7°F18.2°C 69% 5.4 mph N8.7 kmh N 7.6 mph12.2 kmh 29.98 in1015.2 mb 0.00 in0.0 mm 0.00 in0.0 mm 0.00 in0.0 mm
08:50 PM 75.2°F24.0°C 65.2°F18.4°C 71% 4.5 mph N7.2 kmh N 9.8 mph15.8 kmh 29.99 in1015.6 mb 0.00 in0.0 mm 0.00 in0.0 mm 0.00 in0.0 mm
09:00 PM 74.8°F23.8°C 65.6°F18.7°C 73% 4.5 mph N7.2 kmh N 11.4 mph18.3 kmh 29.99 in1015.6 mb 0.00 in0.0 mm 0.00 in0.0 mm 0.00 in0.0 mm
09:10 PM 74.8°F23.8°C 65.6°F18.7°C 73% 6.0 mph N9.7 kmh N 8.3 mph13.4 kmh 29.99 in1015.6 mb 0.00 in0.0 mm 0.00 in0.0 mm 0.00 in0.0 mm
09:20 PM 74.7°F23.7°C 65.5°F18.6°C 73% 6.0 mph N9.7 kmh N 9.2 mph14.8 kmh 30.00 in1015.9 mb 0.00 in0.0 mm 0.00 in0.0 mm 0.00 in0.0 mm
09:30 PM 74.5°F23.6°C 65.3°F18.5°C 73% 5.4 mph N8.7 kmh N 9.2 mph14.8 kmh 30.00 in1015.9 mb 0.00 in0.0 mm 0.00 in0.0 mm 0.00 in0.0 mm
09:40 PM 74.1°F23.4°C 65.3°F18.5°C 74% 3.8 mph NNW6.1 kmh NNW 8.3 mph13.4 kmh 30.00 in1015.9 mb 0.00 in0.0 mm 0.00 in0.0 mm 0.00 in0.0 mm
09:50 PM 73.9°F23.3°C 65.2°F18.4°C 74% 3.1 mph N5.0 kmh N 6.9 mph11.1 kmh 30.00 in1015.9 mb 0.00 in0.0 mm 0.00 in0.0 mm 0.00 in0.0 mm
10:00 PM 73.8°F23.2°C 65.0°F18.3°C 74% 2.2 mph N3.5 kmh N 6.0 mph9.7 kmh 29.99 in1015.6 mb 0.00 in0.0 mm 0.00 in0.0 mm 0.00 in0.0 mm
10:10 PM 73.2°F22.9°C 64.1°F17.8°C 73% 2.2 mph N3.5 kmh N 5.4 mph8.7 kmh 30.00 in1015.9 mb 0.00 in0.0 mm 0.00 in0.0 mm 0.00 in0.0 mm
10:20 PM 73.0°F22.8°C 64.3°F17.9°C 74% 3.8 mph NNE6.1 kmh NNE 6.9 mph11.1 kmh 30.00 in1015.9 mb 0.00 in0.0 mm 0.00 in0.0 mm 0.00 in0.0 mm
10:30 PM 72.9°F22.7°C 64.1°F17.8°C 74% 3.8 mph N6.1 kmh N 7.6 mph12.2 kmh 29.99 in1015.6 mb 0.00 in0.0 mm 0.00 in0.0 mm 0.00 in0.0 mm
10:40 PM 72.3°F22.4°C 63.6°F17.6°C 74% 3.1 mph N5.0 kmh N 6.0 mph9.7 kmh 29.99 in1015.6 mb 0.00 in0.0 mm 0.00 in0.0 mm 0.00 in0.0 mm
10:50 PM 72.3°F22.4°C 63.6°F17.6°C 74% 2.2 mph N3.5 kmh N 7.6 mph12.2 kmh 29.99 in1015.6 mb 0.00 in0.0 mm 0.00 in0.0 mm 0.00 in0.0 mm
11:00 PM 72.3°F22.4°C 62.8°F17.1°C 72% 5.4 mph N8.7 kmh N 8.3 mph13.4 kmh 29.99 in1015.6 mb 0.00 in0.0 mm 0.00 in0.0 mm 0.00 in0.0 mm
11:10 PM 72.9°F22.7°C 63.3°F17.4°C 72% 3.1 mph NNW5.0 kmh NNW 9.8 mph15.8 kmh 29.99 in1015.6 mb 0.00 in0.0 mm 0.00 in0.0 mm 0.00 in0.0 mm
11:20 PM 72.9°F22.7°C 63.3°F17.4°C 72% 3.8 mph NNW6.1 kmh NNW 7.6 mph12.2 kmh 29.99 in1015.6 mb 0.00 in0.0 mm 0.00 in0.0 mm 0.00 in0.0 mm
11:30 PM 72.3°F22.4°C 62.8°F17.1°C 72% 5.4 mph NNW8.7 kmh NNW 7.6 mph12.2 kmh 30.00 in1015.9 mb 0.00 in0.0 mm 0.00 in0.0 mm 0.00 in0.0 mm
11:40 PM 72.3°F22.4°C 62.8°F17.1°C 72% 2.2 mph NW3.5 kmh NW 8.3 mph13.4 kmh 29.99 in1015.6 mb 0.00 in0.0 mm 0.00 in0.0 mm 0.00 in0.0 mm
11:50 PM 72.3°F22.4°C 62.4°F16.9°C 71% 3.1 mph NW5.0 kmh NW 7.6 mph12.2 kmh 29.98 in1015.2 mb 0.00 in0.0 mm 0.00 in0.0 mm 0.00 in0.0 mm